Time;durP1;ratioP1;P1;durP2;ratioP2;P2;SDS_P1;SDS_P2;PMS_P1;PMS_P2;Temp;Humidity;BMP_temperature;BMP_pressure;BME280_temperature;BME280_humidity;BME280_pressure;Samples;Min_cycle;Max_cycle;Signal;HPM_P1;HPM_P2
2021/12/18 00:00:37;;;;;;;25.20;4.88;;;6.90;99.90;;;;;;6215170;23;20024;-85
2021/12/18 00:03:05;;;;;;;9.80;2.20;;;6.90;99.90;;;;;;6187873;23;20074;-86
2021/12/18 00:05:31;;;;;;;11.50;2.33;;;7.00;99.90;;;;;;6212980;23;20017;-86
2021/12/18 00:08:00;;;;;;;6.05;1.75;;;6.90;99.90;;;;;;6214556;23;20051;-86
2021/12/18 00:10:31;;;;;;;4.88;1.45;;;6.90;99.90;;;;;;6188014;23;20104;-86
2021/12/18 00:12:57;;;;;;;8.77;1.83;;;6.90;99.90;;;;;;6168327;23;20071;-85
2021/12/18 00:15:24;;;;;;;7.25;1.10;;;6.90;99.90;;;;;;6196336;23;20020;-86
2021/12/18 00:17:50;;;;;;;4.43;1.10;;;6.90;99.90;;;;;;6188689;23;20024;-85
2021/12/18 00:20:17;;;;;;;6.25;1.08;;;6.90;99.90;;;;;;6187516;23;20144;-86
2021/12/18 00:22:44;;;;;;;14.98;1.15;;;6.90;99.90;;;;;;6187834;23;20056;-85
2021/12/18 00:25:12;;;;;;;12.68;1.70;;;6.80;99.90;;;;;;6187855;23;20077;-85
2021/12/18 00:27:39;;;;;;;25.63;1.55;;;6.80;99.90;;;;;;6186951;23;20459;-85
2021/12/18 00:30:07;;;;;;;13.98;1.30;;;6.80;99.90;;;;;;6187822;23;20028;-85
2021/12/18 00:32:35;;;;;;;8.70;1.00;;;6.80;99.90;;;;;;6215188;23;20082;-86
2021/12/18 00:35:02;;;;;;;30.33;1.83;;;6.80;99.90;;;;;;6188021;23;20079;-86
2021/12/18 00:37:27;;;;;;;40.78;2.28;;;6.80;99.90;;;;;;6212864;23;20471;-86
2021/12/18 00:39:58;;;;;;;23.25;1.60;;;6.80;99.90;;;;;;6187821;23;20384;-85
2021/12/18 00:42:43;;;;;;;14.38;1.15;;;6.80;99.90;;;;;;6212202;22;20021;-85
2021/12/18 00:45:12;;;;;;;16.60;1.40;;;6.80;99.90;;;;;;6187740;23;20408;-85
2021/12/18 00:47:38;;;;;;;20.35;1.67;;;6.80;99.90;;;;;;6214139;23;20012;-85
2021/12/18 00:50:06;;;;;;;10.98;1.33;;;6.80;99.90;;;;;;6165192;23;20028;-85
2021/12/18 00:52:37;;;;;;;17.48;1.15;;;6.80;99.90;;;;;;6195204;23;20024;-85
2021/12/18 00:55:04;;;;;;;19.98;1.35;;;6.80;99.90;;;;;;6188090;23;20095;-85
2021/12/18 00:57:30;;;;;;;13.65;1.08;;;6.80;99.90;;;;;;6214237;23;20353;-85
2021/12/18 01:00:02;;;;;;;3.92;0.80;;;6.80;99.90;;;;;;6214344;23;20079;-85
2021/12/18 01:02:28;;;;;;;11.25;1.30;;;6.80;99.90;;;;;;6187436;23;20100;-85
2021/12/18 01:04:55;;;;;;;11.18;1.35;;;6.90;99.90;;;;;;6162725;23;20054;-86
2021/12/18 01:07:21;;;;;;;10.77;1.73;;;6.80;99.90;;;;;;6187425;23;20166;-86
2021/12/18 01:12:16;;;;;;;17.77;1.40;;;6.80;99.90;;;;;;6215020;23;20021;-87
2021/12/18 01:25:07;;;;;;;10.00;0.98;;;6.80;99.90;;;;;;6189309;23;20029;-86
2021/12/18 01:27:34;;;;;;;11.65;1.40;;;6.80;99.90;;;;;;6164191;23;20341;-85
2021/12/18 01:29:59;;;;;;;7.55;1.23;;;6.80;99.90;;;;;;6190243;23;20036;-85
2021/12/18 01:32:27;;;;;;;20.48;1.50;;;6.80;99.90;;;;;;6216399;23;20020;-86
2021/12/18 01:34:53;;;;;;;12.73;1.73;;;6.80;99.90;;;;;;6195633;23;20326;-86
2021/12/18 01:37:21;;;;;;;12.68;2.10;;;6.80;99.90;;;;;;6168063;23;20067;-83
2021/12/18 01:39:48;;;;;;;12.30;2.10;;;6.80;99.90;;;;;;6189375;23;20028;-84
2021/12/18 01:52:45;;;;;;;20.58;3.30;;;6.90;99.90;;;;;;6188974;23;20475;-85
2021/12/18 01:55:11;;;;;;;10.05;2.67;;;6.90;99.90;;;;;;6189565;23;20056;-84
2021/12/18 01:57:38;;;;;;;16.73;3.15;;;6.90;99.90;;;;;;6189422;23;20024;-85
2021/12/18 02:00:17;;;;;;;12.88;2.80;;;6.90;99.90;;;;;;6189197;23;20024;-84
2021/12/18 02:02:42;;;;;;;8.07;2.70;;;6.90;99.90;;;;;;6164351;23;20464;-83
2021/12/18 02:05:08;;;;;;;13.15;3.03;;;6.90;99.90;;;;;;6189418;23;20083;-84
2021/12/18 02:07:34;;;;;;;14.18;3.28;;;7.00;99.90;;;;;;6167298;23;20055;-84
2021/12/18 02:10:07;;;;;;;12.30;3.60;;;6.90;99.90;;;;;;6171630;23;20103;-84
2021/12/18 02:12:47;;;;;;;20.55;3.00;;;7.00;99.90;;;;;;6192089;23;20017;-85
2021/12/18 02:21:06;;;;;;;18.95;4.32;;;7.00;99.90;;;;;;6188958;23;20024;-86
2021/12/18 02:23:38;;;;;;;13.52;3.45;;;7.00;99.90;;;;;;6164228;23;20124;-85
2021/12/18 02:26:05;;;;;;;12.85;3.38;;;7.00;99.90;;;;;;6188826;23;20103;-84
2021/12/18 02:28:31;;;;;;;14.90;4.28;;;7.10;99.90;;;;;;6189065;23;20017;-84
2021/12/18 02:30:58;;;;;;;13.73;3.53;;;7.10;99.90;;;;;;6189371;23;20341;-85
2021/12/18 02:33:26;;;;;;;13.38;4.18;;;7.10;99.90;;;;;;6189250;23;20384;-84
2021/12/18 02:35:56;;;;;;;12.80;4.45;;;7.10;99.90;;;;;;6214407;23;20027;-85
2021/12/18 02:38:55;;;;;;;25.33;5.30;;;7.10;99.90;;;;;;6188662;23;20025;-84
2021/12/18 02:44:09;;;;;;;21.10;5.38;;;7.20;99.90;;;;;;6188189;23;20028;-85
2021/12/18 02:46:36;;;;;;;15.20;3.40;;;7.20;99.90;;;;;;6193984;23;20047;-84
2021/12/18 02:49:10;;;;;;;9.90;3.90;;;7.20;99.90;;;;;;6189035;23;20523;-84
2021/12/18 02:51:36;;;;;;;10.95;3.88;;;7.20;99.90;;;;;;6213804;23;20098;-85
2021/12/18 02:54:05;;;;;;;12.80;4.22;;;7.20;99.90;;;;;;6189837;23;20025;-86
2021/12/18 02:56:32;;;;;;;11.93;5.25;;;7.20;99.90;;;;;;6188693;23;20021;-85
2021/12/18 02:59:06;;;;;;;11.25;4.95;;;7.20;99.90;;;;;;6189012;23;20024;-85
2021/12/18 03:01:33;;;;;;;13.63;5.40;;;7.20;99.90;;;;;;6188465;23;20031;-85
2021/12/18 03:04:28;;;;;;;17.58;6.13;;;7.20;99.90;;;;;;6188697;23;20028;-85
2021/12/18 03:06:59;;;;;;;14.27;5.40;;;7.20;99.90;;;;;;6215400;23;20096;-84
2021/12/18 03:23:38;;;;;;;19.00;7.20;;;7.30;99.90;;;;;;6154982;23;20017;-86
2021/12/18 03:26:14;;;;;;;15.73;6.68;;;7.30;99.90;;;;;;6140755;23;20253;-85
2021/12/18 03:28:41;;;;;;;18.08;6.75;;;7.30;99.90;;;;;;6134998;23;20061;-85
2021/12/18 03:31:09;;;;;;;19.85;7.20;;;7.30;99.90;;;;;;6128572;23;20025;-85
2021/12/18 03:33:35;;;;;;;21.30;6.47;;;7.30;99.90;;;;;;6103236;23;20033;-84
2021/12/18 03:36:01;;;;;;;21.70;7.45;;;7.30;99.90;;;;;;6152620;23;20029;-85
2021/12/18 03:38:26;;;;;;;16.63;6.22;;;7.30;99.90;;;;;;6127482;23;20048;-84
2021/12/18 03:41:02;;;;;;;;;;;7.30;99.90;;;;;;6107571;23;20488;-86
2021/12/18 03:43:28;;;;;;;11.40;4.10;;;7.30;99.90;;;;;;6127366;23;19943;-85
2021/12/18 03:45:57;;;;;;;9.52;3.30;;;7.30;99.90;;;;;;6127575;23;20021;-85
2021/12/18 03:48:25;;;;;;;11.10;3.95;;;7.30;99.90;;;;;;6103790;23;20021;-85
2021/12/18 03:50:52;;;;;;;8.30;3.28;;;7.30;99.90;;;;;;6150709;23;20028;-86
2021/12/18 03:53:18;;;;;;;10.30;3.70;;;7.30;99.90;;;;;;6140264;23;20035;-86
2021/12/18 03:55:44;;;;;;;11.10;3.92;;;7.30;99.90;;;;;;6187582;23;20067;-86
2021/12/18 03:58:10;;;;;;;17.67;4.63;;;7.30;99.90;;;;;;6188133;23;20021;-86
2021/12/18 04:00:39;;;;;;;17.65;4.78;;;7.30;99.90;;;;;;6215034;23;20377;-86
2021/12/18 04:03:05;;;;;;;13.20;5.32;;;7.30;99.90;;;;;;6218421;23;20020;-85
2021/12/18 04:05:30;;;;;;;19.83;5.97;;;7.30;99.90;;;;;;6195336;23;20021;-85
2021/12/18 04:08:08;;;;;;;15.80;5.00;;;7.30;99.90;;;;;;6190701;23;20032;-85
2021/12/18 04:10:36;;;;;;;14.93;4.65;;;7.40;99.90;;;;;;6214607;23;20030;-85
2021/12/18 04:13:02;;;;;;;19.35;5.68;;;7.40;99.90;;;;;;6187646;23;20095;-85
2021/12/18 04:15:28;;;;;;;15.77;4.93;;;7.40;99.90;;;;;;6213074;23;20031;-84
2021/12/18 04:17:57;;;;;;;16.90;5.00;;;7.30;99.90;;;;;;6162741;23;20351;-85
2021/12/18 04:20:24;;;;;;;22.80;5.22;;;7.40;99.90;;;;;;6214679;23;20031;-85
2021/12/18 04:22:53;;;;;;;24.65;5.60;;;7.40;99.90;;;;;;6163522;23;20021;-85
2021/12/18 04:25:22;;;;;;;21.10;4.90;;;7.40;99.90;;;;;;6188903;23;20035;-85
2021/12/18 04:27:50;;;;;;;19.10;4.80;;;7.30;99.90;;;;;;6187593;23;20028;-85
2021/12/18 04:30:18;;;;;;;26.67;5.35;;;7.40;99.90;;;;;;6214113;23;20086;-85
2021/12/18 04:32:45;;;;;;;27.95;5.95;;;7.40;99.90;;;;;;6188094;23;20452;-86
2021/12/18 04:35:14;;;;;;;27.60;5.35;;;7.40;99.90;;;;;;6187483;23;20543;-85
2021/12/18 04:37:40;;;;;;;38.50;6.00;;;7.40;99.90;;;;;;6162685;23;20025;-86
2021/12/18 04:40:10;;;;;;;23.52;4.85;;;7.40;99.90;;;;;;6187649;23;20028;-86
2021/12/18 04:42:36;;;;;;;47.88;6.28;;;7.30;99.90;;;;;;6212222;22;20083;-86
2021/12/18 04:45:07;;;;;;;41.83;6.75;;;7.30;99.90;;;;;;6188331;23;20469;-86
2021/12/18 04:47:33;;;;;;;22.40;4.80;;;7.30;99.90;;;;;;6168905;23;20024;-87
2021/12/18 04:50:04;;;;;;;26.13;5.15;;;7.30;99.90;;;;;;6170774;23;20028;-86
2021/12/18 04:52:29;;;;;;;32.80;5.32;;;7.30;99.90;;;;;;6216994;23;20024;-83
2021/12/18 04:54:56;;;;;;;20.52;4.72;;;7.30;99.90;;;;;;6189482;23;20100;-86
2021/12/18 04:57:21;;;;;;;24.40;5.03;;;7.30;99.90;;;;;;6189612;23;20063;-85
2021/12/18 04:59:47;;;;;;;17.67;4.15;;;7.30;99.90;;;;;;6164860;23;20032;-85
2021/12/18 05:02:19;;;;;;;17.98;4.25;;;7.30;99.90;;;;;;6216070;23;20024;-85
2021/12/18 05:04:46;;;;;;;12.73;3.88;;;7.30;99.90;;;;;;6188764;23;20025;-84
2021/12/18 05:07:16;;;;;;;18.98;4.57;;;7.40;99.90;;;;;;6190034;23;20100;-84
2021/12/18 05:09:44;;;;;;;16.10;4.18;;;7.40;99.90;;;;;;6190094;23;20029;-84
2021/12/18 05:12:11;;;;;;;14.07;4.15;;;7.40;99.90;;;;;;6216213;23;20056;-86
2021/12/18 05:14:38;;;;;;;13.35;2.90;;;7.40;99.90;;;;;;6189851;23;20052;-85
2021/12/18 05:17:05;;;;;;;12.43;3.67;;;7.40;99.90;;;;;;6189964;23;20352;-84
2021/12/18 05:19:31;;;;;;;16.48;4.10;;;7.50;99.90;;;;;;6216994;23;20025;-84
2021/12/18 05:21:56;;;;;;;17.33;3.88;;;7.50;99.90;;;;;;6216396;23;20102;-85
2021/12/18 05:24:22;;;;;;;19.38;5.18;;;7.50;99.90;;;;;;6164964;23;20020;-85
2021/12/18 05:26:49;;;;;;;17.58;4.78;;;7.50;99.90;;;;;;6192479;23;20020;-84
2021/12/18 05:29:15;;;;;;;16.85;4.15;;;7.60;99.90;;;;;;6172288;23;20027;-85
2021/12/18 05:31:53;;;;;;;18.15;3.80;;;7.60;99.90;;;;;;6189683;23;20060;-84
2021/12/18 05:34:23;;;;;;;15.50;4.47;;;7.60;99.90;;;;;;6189447;23;20470;-85
2021/12/18 05:39:22;;;;;;;18.23;5.10;;;7.60;99.90;;;;;;6189541;23;20013;-85
2021/12/18 05:41:50;;;;;;;16.52;5.60;;;7.60;99.90;;;;;;6189405;23;20028;-85
2021/12/18 05:44:24;;;;;;;14.77;5.30;;;7.60;99.90;;;;;;6190786;23;20052;-85
2021/12/18 05:46:54;;;;;;;20.60;5.82;;;7.60;99.90;;;;;;6189068;23;20017;-85
2021/12/18 05:49:20;;;;;;;23.92;5.40;;;7.70;99.90;;;;;;6189291;23;20032;-85
2021/12/18 05:51:47;;;;;;;23.65;6.57;;;7.70;99.90;;;;;;6189372;23;20020;-85
2021/12/18 05:54:13;;;;;;;25.45;5.82;;;7.70;99.90;;;;;;6189860;23;20027;-85
2021/12/18 05:56:40;;;;;;;37.22;6.95;;;7.70;99.90;;;;;;6189729;23;20114;-86
2021/12/18 05:59:07;;;;;;;15.68;3.58;;;7.70;99.90;;;;;;6215481;23;20021;-85
2021/12/18 06:01:33;;;;;;;11.23;3.08;;;7.70;99.90;;;;;;6164106;23;20025;-86
2021/12/18 06:03:59;;;;;;;17.80;2.83;;;7.70;99.90;;;;;;6191140;23;20021;-86
2021/12/18 06:06:26;;;;;;;8.27;1.70;;;7.70;99.90;;;;;;6223057;23;20044;-85
2021/12/18 06:08:52;;;;;;;8.63;2.20;;;7.80;99.90;;;;;;6191189;23;20059;-86
2021/12/18 06:11:20;;;;;;;7.57;1.63;;;7.80;99.90;;;;;;6189762;23;20155;-86
2021/12/18 06:13:50;;;;;;;7.65;2.35;;;7.70;99.90;;;;;;6189727;23;20027;-86
2021/12/18 06:16:19;;;;;;;10.57;1.80;;;7.80;99.90;;;;;;6188969;23;20031;-86
2021/12/18 06:18:50;;;;;;;7.82;3.15;;;7.80;99.90;;;;;;6189234;23;20471;-86
2021/12/18 06:21:17;;;;;;;9.45;1.60;;;7.80;99.90;;;;;;6214847;23;20064;-85
2021/12/18 06:23:50;;;;;;;15.20;2.65;;;7.80;99.90;;;;;;6189415;23;20035;-85
2021/12/18 06:26:16;;;;;;;10.98;1.80;;;7.80;99.90;;;;;;6164409;23;20021;-85
2021/12/18 06:28:43;;;;;;;10.85;1.67;;;7.90;99.90;;;;;;6189164;23;20096;-86
2021/12/18 06:31:15;;;;;;;8.18;1.92;;;7.90;99.90;;;;;;6188751;23;20079;-85
2021/12/18 06:33:40;;;;;;;11.07;2.03;;;7.90;99.90;;;;;;6189146;23;20024;-85
2021/12/18 06:36:06;;;;;;;10.13;2.08;;;7.90;99.90;;;;;;6215747;23;20028;-85
2021/12/18 06:38:33;;;;;;;11.05;2.08;;;7.90;99.90;;;;;;6191170;23;20103;-85
2021/12/18 06:40:59;;;;;;;10.38;2.38;;;7.90;99.90;;;;;;6170090;23;20032;-85
2021/12/18 06:43:25;;;;;;;11.98;2.33;;;7.90;99.90;;;;;;6194107;23;20096;-84
2021/12/18 06:45:51;;;;;;;7.47;1.63;;;7.90;99.90;;;;;;6189331;23;20021;-85
2021/12/18 06:48:18;;;;;;;12.18;2.22;;;7.90;99.90;;;;;;6188601;23;20024;-85
2021/12/18 06:50:44;;;;;;;8.93;1.58;;;8.00;99.90;;;;;;6189256;23;20025;-86
2021/12/18 06:53:10;;;;;;;10.73;2.58;;;8.00;99.90;;;;;;6212859;23;20124;-85
2021/12/18 06:55:36;;;;;;;10.80;2.45;;;8.00;99.90;;;;;;6188418;23;20388;-85
2021/12/18 06:58:01;;;;;;;10.82;2.05;;;8.00;99.90;;;;;;6188898;23;20024;-85
2021/12/18 07:00:28;;;;;;;6.80;2.10;;;8.00;99.90;;;;;;6188784;23;20021;-85
2021/12/18 07:02:54;;;;;;;15.73;2.50;;;8.00;99.90;;;;;;6188636;23;20364;-85
2021/12/18 07:05:21;;;;;;;6.30;2.13;;;8.00;99.90;;;;;;6188915;23;20021;-84
2021/12/18 07:07:50;;;;;;;10.23;1.95;;;8.00;99.90;;;;;;6188139;23;20107;-86
2021/12/18 07:10:17;;;;;;;9.27;2.20;;;8.00;99.90;;;;;;6188255;23;20349;-86
2021/12/18 07:12:43;;;;;;;12.75;2.90;;;8.00;99.90;;;;;;6188490;23;20020;-86
2021/12/18 07:15:14;;;;;;;11.35;2.55;;;8.00;99.90;;;;;;6215147;23;20104;-86
2021/12/18 07:17:40;;;;;;;8.43;2.10;;;8.00;99.90;;;;;;6188777;23;20017;-86
2021/12/18 07:20:08;;;;;;;13.38;2.10;;;8.00;99.90;;;;;;6163618;23;20110;-86
2021/12/18 07:22:34;;;;;;;12.30;2.15;;;8.00;99.90;;;;;;6189189;23;20016;-84
2021/12/18 07:25:00;;;;;;;13.70;2.78;;;8.00;99.90;;;;;;6190148;23;20028;-86
2021/12/18 07:27:26;;;;;;;9.80;2.30;;;8.00;99.90;;;;;;6223551;23;20087;-86
2021/12/18 07:29:52;;;;;;;13.13;2.53;;;8.00;99.90;;;;;;6218954;23;20029;-87
2021/12/18 07:32:18;;;;;;;12.23;3.20;;;8.00;99.90;;;;;;6213488;23;20020;-85
2021/12/18 07:34:45;;;;;;;11.60;2.30;;;8.00;99.90;;;;;;6188549;23;20103;-86
2021/12/18 07:37:12;;;;;;;16.88;1.95;;;8.00;99.90;;;;;;6215315;23;20027;-85
2021/12/18 07:39:38;;;;;;;8.68;2.28;;;8.00;99.90;;;;;;6163395;23;20353;-85
2021/12/18 07:42:04;;;;;;;9.43;2.78;;;8.10;99.90;;;;;;6214719;23;20023;-85
2021/12/18 07:44:30;;;;;;;10.68;2.28;;;8.10;99.90;;;;;;6162873;23;20017;-86
2021/12/18 07:46:56;;;;;;;11.23;1.90;;;8.10;99.90;;;;;;6187001;23;20349;-85
2021/12/18 07:49:21;;;;;;;12.70;3.08;;;8.10;99.90;;;;;;6188466;23;20029;-86
2021/12/18 07:51:48;;;;;;;10.68;2.65;;;8.10;99.90;;;;;;6187069;23;20031;-85
2021/12/18 07:54:13;;;;;;;10.23;2.42;;;8.10;99.90;;;;;;6187023;23;20052;-86
2021/12/18 07:56:39;;;;;;;13.23;2.78;;;8.10;99.90;;;;;;6156684;23;20029;-85
2021/12/18 07:59:05;;;;;;;16.05;3.15;;;8.10;99.90;;;;;;6156866;23;20024;-85
2021/12/18 08:01:32;;;;;;;19.33;3.40;;;8.10;99.90;;;;;;6132391;23;20029;-85
2021/12/18 08:03:58;;;;;;;13.48;3.67;;;8.10;99.90;;;;;;6134130;23;20024;-86
2021/12/18 08:06:29;;;;;;;10.85;2.40;;;8.10;99.90;;;;;;6140467;23;20036;-85
2021/12/18 08:09:04;;;;;;;;;;;8.10;99.90;;;;;;6162402;23;20555;-86
2021/12/18 08:11:29;;;;;;;14.73;3.55;;;8.00;99.90;;;;;;6157041;23;19951;-86
2021/12/18 08:13:58;;;;;;;11.50;3.13;;;8.00;99.90;;;;;;6182229;23;20025;-86
2021/12/18 08:16:24;;;;;;;10.93;2.67;;;8.00;99.90;;;;;;6181122;23;20021;-86
2021/12/18 08:18:59;;;;;;;7.97;2.22;;;8.10;99.90;;;;;;6136251;23;20028;-85
2021/12/18 08:21:25;;;;;;;9.27;2.33;;;8.00;99.90;;;;;;6182025;23;20144;-85
2021/12/18 08:23:51;;;;;;;10.05;3.13;;;8.10;99.90;;;;;;6132947;23;20088;-86
2021/12/18 08:26:31;;;;;;;5.72;1.85;;;8.00;99.90;;;;;;6125109;23;20105;-86
2021/12/18 08:28:57;;;;;;;8.93;1.95;;;8.00;99.90;;;;;;6100536;23;20057;-86
2021/12/18 08:31:23;;;;;;;5.90;1.55;;;8.00;99.90;;;;;;6125346;23;20046;-85
2021/12/18 08:33:53;;;;;;;8.63;1.95;;;8.00;99.90;;;;;;6124856;23;20473;-86
2021/12/18 08:36:18;;;;;;;10.27;1.67;;;8.10;99.90;;;;;;6099995;23;20033;-85
2021/12/18 08:38:44;;;;;;;14.57;2.08;;;8.00;99.90;;;;;;6127138;23;20025;-86
2021/12/18 08:41:13;;;;;;;7.97;1.70;;;8.00;99.90;;;;;;6130060;23;20056;-84
2021/12/18 08:43:49;;;;;;;8.07;1.80;;;8.00;99.90;;;;;;6100857;23;20048;-85
2021/12/18 08:46:15;;;;;;;7.57;2.08;;;8.00;99.90;;;;;;6076349;23;20022;-84
2021/12/18 08:48:41;;;;;;;9.98;2.47;;;8.10;99.90;;;;;;6025106;23;20023;-84
2021/12/18 08:51:09;;;;;;;7.43;1.90;;;8.00;99.90;;;;;;6070873;23;20459;-84
2021/12/18 08:53:34;;;;;;;9.25;2.78;;;8.00;99.90;;;;;;6046189;23;20355;-84
2021/12/18 08:56:00;;;;;;;9.55;2.30;;;8.10;99.90;;;;;;6095357;23;20022;-85
2021/12/18 08:58:27;;;;;;;14.23;3.17;;;8.10;99.90;;;;;;6148730;23;20024;-85
2021/12/18 09:00:53;;;;;;;8.27;3.03;;;8.10;99.90;;;;;;6186566;23;20352;-86
2021/12/18 09:03:19;;;;;;;9.95;3.15;;;8.10;99.90;;;;;;6159891;23;20073;-85
2021/12/18 09:05:49;;;;;;;16.38;3.38;;;8.10;99.90;;;;;;6186222;23;20029;-86
2021/12/18 09:08:15;;;;;;;11.68;2.45;;;8.10;99.90;;;;;;6159384;23;20021;-86
2021/12/18 09:10:42;;;;;;;9.57;1.80;;;8.10;99.90;;;;;;6158598;23;20029;-85
2021/12/18 09:13:08;;;;;;;10.30;2.33;;;8.10;99.90;;;;;;6135453;23;20099;-86
2021/12/18 09:15:42;;;;;;;11.73;2.58;;;8.10;99.90;;;;;;6135274;23;20068;-86
2021/12/18 09:18:09;;;;;;;6.63;2.20;;;8.00;99.90;;;;;;6189911;23;20028;-86
2021/12/18 09:20:35;;;;;;;9.85;2.30;;;8.10;99.90;;;;;;6190782;23;20025;-86
2021/12/18 09:23:02;;;;;;;11.77;2.80;;;8.10;99.90;;;;;;6160675;23;20013;-85
2021/12/18 09:25:28;;;;;;;11.48;2.88;;;8.10;99.90;;;;;;6186418;23;20336;-85
2021/12/18 09:27:56;;;;;;;9.70;2.72;;;8.10;99.90;;;;;;6135164;23;20017;-85
2021/12/18 09:30:23;;;;;;;9.30;3.15;;;8.20;99.90;;;;;;6159453;23;20021;-85
2021/12/18 09:32:52;;;;;;;13.27;4.28;;;8.20;99.90;;;;;;6159022;23;20021;-85
2021/12/18 09:35:21;;;;;;;7.85;2.90;;;8.20;99.90;;;;;;6158520;23;20079;-85
2021/12/18 09:37:47;;;;;;;9.48;2.90;;;8.20;99.90;;;;;;6134733;23;20021;-85
2021/12/18 09:40:17;;;;;;;17.70;3.20;;;8.20;99.90;;;;;;6186284;23;20024;-86
2021/12/18 09:42:43;;;;;;;14.57;3.25;;;8.20;99.90;;;;;;6150697;23;20107;-86
2021/12/18 09:45:10;;;;;;;10.32;2.38;;;8.20;99.90;;;;;;6189487;23;20021;-85
2021/12/18 09:47:37;;;;;;;11.45;2.60;;;8.20;99.90;;;;;;6188834;23;20433;-85
2021/12/18 09:50:04;;;;;;;16.88;3.60;;;8.20;99.90;;;;;;6188992;23;20032;-85
2021/12/18 09:52:31;;;;;;;8.32;2.20;;;8.30;99.90;;;;;;6189132;23;20100;-86
2021/12/18 09:55:07;;;;;;;9.68;2.50;;;8.30;99.90;;;;;;6217460;23;20076;-86
2021/12/18 09:57:34;;;;;;;9.05;1.95;;;8.30;99.90;;;;;;6196184;23;20020;-85
2021/12/18 10:00:00;;;;;;;15.82;2.80;;;8.40;99.90;;;;;;6220633;23;20030;-85
2021/12/18 10:02:26;;;;;;;8.63;2.78;;;8.40;99.90;;;;;;6189113;23;20024;-85
2021/12/18 10:04:52;;;;;;;7.55;2.10;;;8.40;99.90;;;;;;6189179;23;20021;-86
2021/12/18 10:07:23;;;;;;;8.55;2.63;;;8.40;99.90;;;;;;6163549;23;20024;-86
2021/12/18 10:09:57;;;;;;;14.88;2.65;;;8.50;99.90;;;;;;6188781;23;20029;-86
2021/12/18 10:12:31;;;;;;;5.97;3.03;;;8.50;99.90;;;;;;6163493;23;20103;-86
2021/12/18 10:15:04;;;;;;;11.02;2.20;;;8.50;99.90;;;;;;6188314;23;20110;-86
2021/12/18 10:18:02;;;;;;;9.18;2.10;;;8.60;99.90;;;;;;6163963;23;20024;-86
2021/12/18 10:20:28;;;;;;;8.48;2.42;;;8.60;99.90;;;;;;6188019;23;20079;-87
2021/12/18 10:23:04;;;;;;;11.27;1.80;;;8.60;99.90;;;;;;6188243;23;20016;-86
2021/12/18 10:25:40;;;;;;;8.43;2.05;;;8.60;99.90;;;;;;6188458;23;20016;-85
2021/12/18 10:28:17;;;;;;;13.60;2.10;;;8.70;99.90;;;;;;6187802;23;20071;-85
2021/12/18 10:30:56;;;;;;;7.35;2.05;;;8.70;99.90;;;;;;6188832;23;20020;-86
2021/12/18 10:33:31;;;;;;;12.03;1.97;;;8.70;99.90;;;;;;6216454;23;20456;-85
2021/12/18 10:35:59;;;;;;;9.90;2.08;;;8.70;99.90;;;;;;6191763;23;20284;-86
2021/12/18 10:38:55;;;;;;;10.65;1.92;;;8.70;99.90;;;;;;6194168;23;20082;-86
2021/12/18 10:41:26;;;;;;;10.52;2.20;;;8.70;99.90;;;;;;6203382;23;20140;-85
2021/12/18 10:44:00;;;;;;;15.77;2.38;;;8.80;99.90;;;;;;6171439;23;20152;-85
2021/12/18 10:46:27;;;;;;;9.02;2.00;;;8.80;99.90;;;;;;6151955;23;20365;-85
2021/12/18 10:49:02;;;;;;;12.65;2.25;;;8.80;99.90;;;;;;6127843;23;20018;-85
2021/12/18 10:51:30;;;;;;;8.63;2.42;;;8.80;99.90;;;;;;6127345;23;20033;-85
2021/12/18 10:54:21;;;;;;;11.68;2.38;;;8.80;99.90;;;;;;6127504;23;20064;-86
2021/12/18 10:56:51;;;;;;;11.75;2.65;;;8.90;99.90;;;;;;6120833;23;20035;-86
2021/12/18 10:59:34;;;;;;;14.52;3.38;;;8.90;99.90;;;;;;6127904;23;20104;-85
2021/12/18 11:02:09;;;;;;;16.60;3.28;;;8.90;99.90;;;;;;6103026;23;20033;-85
2021/12/18 11:04:40;;;;;;;19.90;2.97;;;8.90;99.90;;;;;;6127819;23;20025;-86
2021/12/18 11:07:41;;;;;;;16.15;2.45;;;9.00;99.90;;;;;;6128295;23;20025;-85
2021/12/18 11:13:45;;;;;;;9.95;2.10;;;9.00;99.90;;;;;;6097366;23;20025;-85
2021/12/18 11:16:12;;;;;;;12.38;2.25;;;9.10;99.90;;;;;;6077730;23;20465;-86
2021/12/18 11:18:38;;;;;;;17.60;3.53;;;9.10;99.90;;;;;;6159809;23;20216;-86
2021/12/18 11:21:04;;;;;;;13.02;2.50;;;9.10;99.90;;;;;;6153334;23;20025;-86
2021/12/18 11:24:07;;;;;;;21.15;3.25;;;9.10;99.90;;;;;;6122207;23;20097;-86
2021/12/18 11:26:41;;;;;;;14.10;3.30;;;9.10;99.90;;;;;;6152083;23;20417;-86
2021/12/18 11:29:19;;;;;;;13.00;3.90;;;9.20;99.90;;;;;;6126600;23;20448;-86
2021/12/18 11:31:46;;;;;;;24.83;4.60;;;9.20;99.90;;;;;;6104591;23;20100;-86
2021/12/18 11:34:12;;;;;;;14.18;3.88;;;9.20;99.90;;;;;;6102737;23;20410;-86
2021/12/18 11:36:41;;;;;;;14.73;4.18;;;9.20;99.90;;;;;;6127531;23;20095;-86
2021/12/18 11:39:12;;;;;;;15.27;3.40;;;9.30;99.90;;;;;;6127554;23;20028;-85
2021/12/18 11:41:40;;;;;;;11.77;2.85;;;9.20;99.90;;;;;;6150691;23;20028;-86
2021/12/18 11:44:39;;;;;;;19.95;2.67;;;9.20;99.90;;;;;;6127371;23;20343;-86
2021/12/18 11:47:26;;;;;;;11.85;2.35;;;9.10;99.90;;;;;;6151041;23;20355;-86
2021/12/18 11:50:02;;;;;;;16.52;3.63;;;9.20;99.90;;;;;;6187933;23;20047;-86
2021/12/18 11:52:28;;;;;;;14.50;2.92;;;9.10;99.90;;;;;;6187648;23;20052;-86
2021/12/18 11:55:00;;;;;;;9.95;2.58;;;9.10;99.90;;;;;;6218118;23;20020;-87
2021/12/18 11:57:48;;;;;;;12.23;2.50;;;9.20;99.90;;;;;;6193986;23;20345;-86
2021/12/18 12:00:23;;;;;;;12.98;2.50;;;9.10;99.90;;;;;;6163181;23;20055;-86
2021/12/18 12:02:55;;;;;;;14.45;2.85;;;9.10;99.90;;;;;;6187278;23;20396;-87
2021/12/18 12:05:43;;;;;;;10.95;2.90;;;9.10;99.90;;;;;;6187759;23;20759;-86
2021/12/18 12:08:18;;;;;;;12.40;2.40;;;9.10;99.90;;;;;;6188047;23;20021;-87
2021/12/18 12:11:15;;;;;;;12.93;2.50;;;9.10;99.90;;;;;;6187973;23;20127;-87
2021/12/18 12:14:11;;;;;;;13.63;2.78;;;9.10;99.90;;;;;;6187847;23;20056;-87
2021/12/18 12:16:45;;;;;;;18.27;3.00;;;9.10;99.90;;;;;;6186995;23;20055;-87
2021/12/18 12:19:26;;;;;;;12.20;2.47;;;9.10;99.90;;;;;;6187689;23;20028;-86
2021/12/18 12:21:55;;;;;;;14.45;2.95;;;9.10;99.90;;;;;;6162721;23;20062;-86
2021/12/18 12:24:26;;;;;;;14.40;2.65;;;9.10;99.90;;;;;;6215201;23;20391;-87
2021/12/18 12:26:54;;;;;;;13.25;2.42;;;9.00;99.90;;;;;;6213476;23;20029;-86
2021/12/18 12:29:20;;;;;;;16.63;2.75;;;9.00;99.90;;;;;;6163129;23;20032;-86
2021/12/18 12:31:56;;;;;;;19.30;3.03;;;9.00;99.90;;;;;;6187965;23;20512;-86
2021/12/18 12:34:33;;;;;;;15.50;2.45;;;9.00;99.90;;;;;;6191828;23;20334;-86
2021/12/18 12:37:25;;;;;;;15.27;3.72;;;9.00;99.90;;;;;;6194302;23;20028;-87
2021/12/18 12:40:04;;;;;;;14.77;3.45;;;9.00;99.90;;;;;;6179363;23;20551;-86
2021/12/18 12:42:31;;;;;;;20.55;3.17;;;9.00;99.90;;;;;;6187070;23;20033;-87
2021/12/18 12:45:08;;;;;;;12.85;2.63;;;9.00;99.90;;;;;;6162452;23;20025;-86
2021/12/18 12:47:36;;;;;;;13.25;3.58;;;9.00;99.90;;;;;;6161982;23;20020;-87
2021/12/18 12:50:13;;;;;;;8.45;3.10;;;8.90;99.90;;;;;;6187157;23;20028;-87
2021/12/18 12:52:53;;;;;;;14.23;3.05;;;8.90;99.90;;;;;;6187591;23;20027;-87
2021/12/18 12:55:21;;;;;;;15.07;3.28;;;8.90;99.90;;;;;;6212353;23;20035;-87
2021/12/18 12:57:55;;;;;;;9.77;2.80;;;8.90;99.90;;;;;;6187277;23;20024;-87
2021/12/18 13:00:23;;;;;;;15.80;2.72;;;8.90;99.90;;;;;;6212559;23;20024;-87
2021/12/18 13:02:55;;;;;;;11.85;2.58;;;8.90;99.90;;;;;;6187573;23;20067;-86
2021/12/18 13:05:22;;;;;;;10.07;2.50;;;8.90;99.90;;;;;;6187766;23;20021;-87
2021/12/18 13:07:49;;;;;;;12.63;3.22;;;8.80;99.90;;;;;;6188047;23;20021;-86
2021/12/18 13:10:20;;;;;;;10.43;2.33;;;8.90;99.90;;;;;;6187189;23;20028;-87
2021/12/18 13:13:05;;;;;;;14.50;2.47;;;8.90;99.90;;;;;;6189097;23;20099;-86
2021/12/18 13:16:01;;;;;;;15.52;3.15;;;8.80;99.90;;;;;;6189260;23;20028;-86
2021/12/18 13:18:28;;;;;;;11.07;3.03;;;8.80;99.90;;;;;;6189365;23;20029;-86
2021/12/18 13:21:06;;;;;;;13.38;2.33;;;8.80;99.90;;;;;;6165782;23;20024;-87
2021/12/18 13:23:58;;;;;;;12.05;2.47;;;8.80;99.90;;;;;;6195076;23;20031;-87
2021/12/18 13:26:30;;;;;;;10.75;2.55;;;8.80;99.90;;;;;;6190425;23;20017;-87
2021/12/18 13:29:03;;;;;;;12.10;2.55;;;8.80;99.90;;;;;;6212727;23;20054;-86
2021/12/18 13:31:32;;;;;;;12.55;2.70;;;8.70;99.90;;;;;;6189253;23;20017;-87
2021/12/18 13:34:03;;;;;;;10.93;2.38;;;8.70;99.90;;;;;;6188952;23;20055;-86
2021/12/18 13:36:42;;;;;;;15.30;2.45;;;8.70;99.90;;;;;;6189260;23;20051;-86
2021/12/18 13:39:14;;;;;;;11.90;2.88;;;8.70;99.90;;;;;;6189794;23;20020;-87
2021/12/18 13:42:00;;;;;;;16.25;2.58;;;8.70;99.90;;;;;;6185792;23;20027;-87
2021/12/18 13:44:41;;;;;;;14.02;3.05;;;8.70;99.90;;;;;;6185916;23;20017;-86
2021/12/18 13:47:18;;;;;;;10.40;3.30;;;8.70;99.90;;;;;;6188838;23;20029;-86
2021/12/18 13:49:44;;;;;;;10.23;2.25;;;8.70;99.90;;;;;;6188757;23;20448;-86
2021/12/18 13:52:37;;;;;;;11.82;3.28;;;8.60;99.90;;;;;;6188112;23;20032;-86
2021/12/18 13:55:23;;;;;;;11.15;2.13;;;8.60;99.90;;;;;;6213909;23;20024;-86
2021/12/18 13:58:06;;;;;;;16.10;2.55;;;8.60;99.90;;;;;;6218390;23;20087;-87